createdAt,value
2023-02-22T00:00:57.966Z,1.76
2023-02-22T00:01:57.982Z,1.77
2023-02-22T00:02:58.029Z,1.78
2023-02-22T00:03:58.024Z,1.84
2023-02-22T00:04:58.071Z,1.87
2023-02-22T00:05:58.050Z,1.89
2023-02-22T00:06:58.067Z,1.91
2023-02-22T00:07:58.083Z,1.92
2023-02-22T00:08:58.100Z,1.91
2023-02-22T00:09:58.132Z,1.92
2023-02-22T00:10:58.141Z,1.88
2023-02-22T00:11:58.151Z,1.80
2023-02-22T00:12:58.183Z,1.77
2023-02-22T00:13:58.209Z,1.71
2023-02-22T00:14:58.219Z,1.66
2023-02-22T00:15:58.291Z,1.67
2023-02-22T00:16:58.238Z,1.74
2023-02-22T00:17:58.271Z,1.74
2023-02-22T00:18:58.280Z,1.77
2023-02-22T00:19:58.310Z,1.77
2023-02-22T00:20:58.319Z,1.77
2023-02-22T00:21:58.346Z,1.80
2023-02-22T00:22:58.354Z,1.81
2023-02-22T00:23:58.372Z,1.81
2023-02-22T00:24:58.406Z,1.81
2023-02-22T00:25:58.431Z,1.81
2023-02-22T00:26:58.429Z,1.81
2023-02-22T00:27:58.441Z,1.77
2023-02-22T00:28:58.460Z,1.74
2023-02-22T00:29:58.497Z,1.66
2023-02-22T00:30:58.500Z,1.59
2023-02-22T00:31:58.628Z,1.56
2023-02-22T00:32:58.542Z,1.55
2023-02-22T00:33:58.553Z,1.53
2023-02-22T00:34:58.591Z,1.56
2023-02-22T00:35:58.593Z,1.58
2023-02-22T00:36:58.615Z,1.59
2023-02-22T00:37:58.627Z,1.62
2023-02-22T00:38:58.667Z,1.60
2023-02-22T00:39:58.681Z,1.59
2023-02-22T00:40:58.683Z,1.60
2023-02-22T00:41:58.752Z,1.59
2023-02-22T00:42:58.717Z,1.62
2023-02-22T00:43:58.733Z,1.63
2023-02-22T00:44:58.776Z,1.68
2023-02-22T00:45:58.811Z,1.70
2023-02-22T00:46:58.772Z,1.70
2023-02-22T00:47:58.787Z,1.67
2023-02-22T00:48:58.811Z,1.66
2023-02-22T00:49:58.835Z,1.66
2023-02-22T00:50:58.845Z,1.63
2023-02-22T00:51:58.848Z,1.62
2023-02-22T00:52:58.870Z,1.60
2023-02-22T00:53:58.885Z,1.60
2023-02-22T00:54:58.925Z,1.62
2023-02-22T00:55:58.925Z,1.66
2023-02-22T00:56:58.949Z,1.63
2023-02-22T00:57:58.960Z,1.55
2023-02-22T00:58:58.986Z,1.48
2023-02-22T00:59:59.015Z,1.49
2023-02-22T01:00:59.085Z,1.45
2023-02-22T01:01:59.103Z,1.38
2023-02-22T01:02:59.066Z,1.37
2023-02-22T01:03:59.049Z,1.40
2023-02-22T01:04:59.087Z,1.45
2023-02-22T01:05:59.083Z,1.48
2023-02-22T01:06:59.106Z,1.52
2023-02-22T01:07:59.110Z,1.56
2023-02-22T01:08:59.133Z,1.56
2023-02-22T01:09:59.166Z,1.58
2023-02-22T01:10:59.170Z,1.60
2023-02-22T01:11:59.186Z,1.60
2023-02-22T01:12:59.225Z,1.58
2023-02-22T01:13:59.222Z,1.56
2023-02-22T01:14:59.262Z,1.55
2023-02-22T01:15:59.249Z,1.49
2023-02-22T01:16:59.276Z,1.45
2023-02-22T01:17:59.281Z,1.42
2023-02-22T01:18:59.304Z,1.40
2023-02-22T01:19:59.346Z,1.40
2023-02-22T01:20:59.344Z,1.38
2023-02-22T01:21:59.354Z,1.40
2023-02-22T01:22:59.377Z,1.40
2023-02-22T01:23:59.383Z,1.42
2023-02-22T01:24:59.423Z,1.41
2023-02-22T01:25:59.411Z,1.38
2023-02-22T01:26:59.431Z,1.31
2023-02-22T01:27:59.460Z,1.22
2023-02-22T01:28:59.465Z,1.19
2023-02-22T01:29:59.499Z,1.23
2023-02-22T01:30:59.720Z,1.28
2023-02-22T01:31:59.538Z,1.30
2023-02-22T01:32:59.544Z,1.26
2023-02-22T01:33:59.562Z,1.30
2023-02-22T01:34:59.603Z,1.32
2023-02-22T01:35:59.615Z,1.32
2023-02-22T01:36:59.611Z,1.34
2023-02-22T01:37:59.629Z,1.32
2023-02-22T01:38:59.648Z,1.32
2023-02-22T01:39:59.686Z,1.28
2023-02-22T01:40:59.687Z,1.30
2023-02-22T01:41:59.707Z,1.26
2023-02-22T01:42:59.738Z,1.23
2023-02-22T01:43:59.740Z,1.24
2023-02-22T01:44:59.780Z,1.28
2023-02-22T01:45:59.815Z,1.31
2023-02-22T01:46:59.801Z,1.35
2023-02-22T01:47:59.817Z,1.34
2023-02-22T01:48:59.836Z,1.34
2023-02-22T01:49:59.870Z,1.34
2023-02-22T01:50:59.879Z,1.34
2023-02-22T01:51:59.910Z,1.32
2023-02-22T01:52:59.909Z,1.26
2023-02-22T01:53:59.922Z,1.17
2023-02-22T01:54:59.962Z,1.10
2023-02-22T01:55:59.959Z,1.06
2023-02-22T01:56:59.980Z,1.02
2023-02-22T01:57:59.995Z,0.99
2023-02-22T01:59:00.024Z,1.02
2023-02-22T02:00:00.108Z,1.12
2023-02-22T02:01:00.087Z,1.13
2023-02-22T02:02:00.100Z,1.16
2023-02-22T02:03:00.098Z,1.22
2023-02-22T02:04:00.211Z,1.26
2023-02-22T02:05:00.261Z,1.28
2023-02-22T02:06:00.134Z,1.26
2023-02-22T02:07:00.161Z,1.24
2023-02-22T02:08:00.172Z,1.20
2023-02-22T02:09:00.194Z,1.14
2023-02-22T02:10:00.229Z,1.05
2023-02-22T02:11:00.237Z,1.01
2023-02-22T02:12:00.246Z,0.98
2023-02-22T02:13:00.276Z,0.99
2023-02-22T02:14:00.286Z,1.01
2023-02-22T02:15:00.323Z,1.01
2023-02-22T02:16:00.324Z,1.01
2023-02-22T02:17:00.389Z,0.99
2023-02-22T02:18:00.359Z,1.04
2023-02-22T02:19:00.382Z,1.08
2023-02-22T02:20:00.411Z,1.10
2023-02-22T02:21:00.415Z,1.06
2023-02-22T02:22:00.427Z,1.06
2023-02-22T02:23:00.453Z,1.08
2023-02-22T02:24:00.463Z,1.08
2023-02-22T02:25:00.519Z,1.06
2023-02-22T02:26:00.508Z,1.06
2023-02-22T02:27:00.519Z,1.04
2023-02-22T02:28:00.535Z,1.01
2023-02-22T02:29:00.554Z,1.01
2023-02-22T02:30:00.587Z,0.99
2023-02-22T02:31:00.589Z,0.94
2023-02-22T02:33:27.540Z,0.96
2023-02-22T02:33:32.428Z,0.99
2023-02-22T02:34:32.459Z,0.99
2023-02-22T02:35:32.464Z,1.01
2023-02-22T02:36:32.479Z,0.98
2023-02-22T02:37:32.497Z,0.94
2023-02-22T02:38:32.528Z,0.92
2023-02-22T02:39:32.552Z,0.88
2023-02-22T02:40:32.561Z,0.88
2023-02-22T02:41:32.572Z,0.94
2023-02-22T02:42:32.576Z,0.95
2023-02-22T02:43:32.599Z,0.98
2023-02-22T02:44:32.626Z,0.98
2023-02-22T02:45:32.629Z,0.98
2023-02-22T02:46:32.647Z,0.96
2023-02-22T02:47:32.749Z,0.95
2023-02-22T02:48:32.687Z,0.95
2023-02-22T02:49:32.720Z,0.94
2023-02-22T02:50:32.720Z,0.92
2023-02-22T02:51:32.737Z,0.91
2023-02-22T02:52:32.752Z,0.88
2023-02-22T02:53:32.775Z,0.86
2023-02-22T02:54:32.804Z,0.86
2023-02-22T02:55:32.826Z,0.92
2023-02-22T02:56:32.831Z,0.94
2023-02-22T02:57:32.849Z,0.95
2023-02-22T02:58:32.877Z,0.98
2023-02-22T02:59:32.929Z,1.02
2023-02-22T03:00:32.901Z,1.02
2023-02-22T03:01:32.984Z,1.01
2023-02-22T03:02:32.938Z,0.99
2023-02-22T03:03:32.953Z,0.99
2023-02-22T03:04:32.995Z,0.95
2023-02-22T03:05:32.998Z,0.92
2023-02-22T03:06:33.008Z,0.92
2023-02-22T03:07:33.092Z,0.91
2023-02-22T03:08:33.038Z,0.88
2023-02-22T03:09:33.074Z,0.92
2023-02-22T03:10:33.080Z,0.96
2023-02-22T03:11:33.096Z,0.96
2023-02-22T03:12:33.124Z,0.95
2023-02-22T03:13:33.130Z,0.99
2023-02-22T03:14:33.175Z,1.02
2023-02-22T03:15:33.162Z,1.02
2023-02-22T03:16:33.205Z,1.04
2023-02-22T03:17:33.201Z,1.04
2023-02-22T03:18:33.271Z,0.99
2023-02-22T03:19:33.254Z,1.02
2023-02-22T03:20:33.270Z,1.02
2023-02-22T03:21:33.268Z,1.01
2023-02-22T03:22:33.291Z,1.04
2023-02-22T03:23:33.306Z,1.01
2023-02-22T03:24:33.348Z,0.96
2023-02-22T03:25:33.336Z,0.92
2023-02-22T03:26:33.358Z,0.92
2023-02-22T03:27:33.377Z,0.91
2023-02-22T03:28:33.410Z,0.92
2023-02-22T03:29:33.460Z,0.92
2023-02-22T03:30:33.462Z,0.92
2023-02-22T03:31:33.464Z,0.88
2023-02-22T03:32:33.481Z,0.87
2023-02-22T03:33:33.501Z,0.83
2023-02-22T03:34:33.530Z,0.83
2023-02-22T03:35:33.530Z,0.86
2023-02-22T03:36:33.552Z,0.91
2023-02-22T03:37:33.559Z,0.92
2023-02-22T03:38:33.584Z,0.92
2023-02-22T03:39:33.609Z,0.92
2023-02-22T03:40:33.616Z,0.88
2023-02-22T03:41:33.628Z,0.87
2023-02-22T03:42:33.650Z,0.86
2023-02-22T03:43:33.665Z,0.80
2023-02-22T03:44:33.705Z,0.78
2023-02-22T03:45:33.696Z,0.74
2023-02-22T03:46:33.779Z,0.74
2023-02-22T03:47:33.737Z,0.70
2023-02-22T03:48:33.757Z,0.68
2023-02-22T03:49:33.793Z,0.68
2023-02-22T03:50:33.800Z,0.70
2023-02-22T03:51:33.812Z,0.70
2023-02-22T03:52:33.831Z,0.73
2023-02-22T03:53:33.849Z,0.74
2023-02-22T03:54:33.886Z,0.70
2023-02-22T03:55:33.886Z,0.70
2023-02-22T03:56:34.581Z,0.70
2023-02-22T03:57:33.922Z,0.69
2023-02-22T03:58:33.938Z,0.70
2023-02-22T03:59:33.984Z,0.73
2023-02-22T04:00:33.975Z,0.69
2023-02-22T04:01:33.984Z,0.68
2023-02-22T04:02:34.020Z,0.68
2023-02-22T04:03:34.027Z,0.66
2023-02-22T04:04:34.109Z,0.66
2023-02-22T04:05:34.055Z,0.63
2023-02-22T04:06:34.081Z,0.63
2023-02-22T04:07:34.088Z,0.65
2023-02-22T04:08:34.111Z,0.65
2023-02-22T04:09:34.142Z,0.66
2023-02-22T04:10:34.150Z,0.68
2023-02-22T04:11:34.160Z,0.66
2023-02-22T04:12:34.184Z,0.68
2023-02-22T04:13:34.189Z,0.73
2023-02-22T04:14:34.230Z,0.73
2023-02-22T04:15:34.227Z,0.70
2023-02-22T04:16:34.254Z,0.68
2023-02-22T04:17:34.267Z,0.65
2023-02-22T04:18:34.288Z,0.66
2023-02-22T04:19:34.322Z,0.66
2023-02-22T04:20:34.327Z,0.65
2023-02-22T04:21:34.343Z,0.65
2023-02-22T04:22:34.368Z,0.68
2023-02-22T04:23:34.377Z,0.70
2023-02-22T04:24:34.429Z,0.77
2023-02-22T04:25:34.413Z,0.77
2023-02-22T04:26:34.440Z,0.76
2023-02-22T04:27:34.453Z,0.80
2023-02-22T04:28:34.487Z,0.78
2023-02-22T04:29:34.515Z,0.77
2023-02-22T04:30:34.575Z,0.74
2023-02-22T04:31:34.604Z,0.78
2023-02-22T04:32:34.529Z,0.76
2023-02-22T04:33:34.541Z,0.74
2023-02-22T04:34:34.583Z,0.77
2023-02-22T04:35:35.638Z,0.77
2023-02-22T04:36:34.600Z,0.83
2023-02-22T04:37:34.616Z,0.87
2023-02-22T04:38:34.629Z,0.92
2023-02-22T04:39:34.691Z,0.88
2023-02-22T04:40:34.652Z,0.92
2023-02-22T04:41:34.684Z,0.91
2023-02-22T04:42:34.704Z,0.86
2023-02-22T04:43:34.705Z,0.83
2023-02-22T04:44:34.750Z,0.81
2023-02-22T04:45:34.750Z,0.80
2023-02-22T04:46:34.825Z,0.77
2023-02-22T04:47:34.778Z,0.77
2023-02-22T04:48:34.802Z,0.76
2023-02-22T04:49:35.684Z,0.77
2023-02-22T04:50:34.830Z,0.77
2023-02-22T04:51:34.849Z,0.76
2023-02-22T04:52:34.873Z,0.73
2023-02-22T04:53:34.886Z,0.69
2023-02-22T04:54:34.928Z,0.65
2023-02-22T04:55:34.926Z,0.63
2023-02-22T04:56:34.948Z,0.65
2023-02-22T04:57:34.952Z,0.66
2023-02-22T04:58:34.980Z,0.63
2023-02-22T04:59:35.011Z,0.65
2023-02-22T05:00:41.509Z,0.63
2023-02-22T05:01:35.041Z,0.59
2023-02-22T05:02:35.092Z,0.59
2023-02-22T05:03:35.070Z,0.59
2023-02-22T05:04:35.118Z,0.56
2023-02-22T05:05:35.108Z,0.55
2023-02-22T05:06:35.130Z,0.56
2023-02-22T05:07:35.239Z,0.58
2023-02-22T05:08:35.160Z,0.56
2023-02-22T05:09:35.188Z,0.56
2023-02-22T05:10:35.197Z,0.55
2023-02-22T05:11:35.210Z,0.52
2023-02-22T05:12:35.227Z,0.49
2023-02-22T05:13:35.235Z,0.46
2023-02-22T05:14:35.281Z,0.43
2023-02-22T05:15:35.275Z,0.40
2023-02-22T05:16:35.299Z,0.39
2023-02-22T05:17:35.306Z,0.40
2023-02-22T05:18:35.329Z,0.40
2023-02-22T05:19:35.360Z,0.43
2023-02-22T05:20:35.382Z,0.43
2023-02-22T05:21:35.384Z,0.46
2023-02-22T05:22:35.398Z,0.43
2023-02-22T05:23:35.408Z,0.41
2023-02-22T05:24:35.455Z,0.43
2023-02-22T05:25:35.447Z,0.44
2023-02-22T05:26:35.470Z,0.44
2023-02-22T05:27:35.480Z,0.44
2023-02-22T05:28:35.511Z,0.44
2023-02-22T05:29:35.547Z,0.46
2023-02-22T05:30:35.640Z,0.44
2023-02-22T05:31:35.715Z,0.43
2023-02-22T05:32:35.581Z,0.40
2023-02-22T05:33:35.599Z,0.41
2023-02-22T05:34:35.639Z,0.40
2023-02-22T05:35:35.658Z,0.39
2023-02-22T05:36:35.671Z,0.39
2023-02-22T05:37:35.686Z,0.41
2023-02-22T05:38:35.680Z,0.34
2023-02-22T05:39:35.714Z,0.31
2023-02-22T05:40:35.715Z,0.28
2023-02-22T05:41:35.736Z,0.26
2023-02-22T05:42:35.749Z,0.31
2023-02-22T05:43:35.756Z,0.28
2023-02-22T05:44:35.816Z,0.26
2023-02-22T05:45:35.796Z,0.28
2023-02-22T05:46:35.847Z,0.29
2023-02-22T05:47:35.826Z,0.28
2023-02-22T05:48:35.853Z,0.25
2023-02-22T05:49:35.889Z,0.25
2023-02-22T05:50:35.887Z,0.23
2023-02-22T05:51:35.904Z,0.23
2023-02-22T05:52:35.932Z,0.22
2023-02-22T05:53:35.946Z,0.21
2023-02-22T05:54:35.990Z,0.16
2023-02-22T05:55:35.981Z,0.12
2023-02-22T05:56:35.996Z,0.12
2023-02-22T05:57:36.015Z,0.05
2023-02-22T05:58:36.044Z,0.05
2023-02-22T05:59:36.071Z,0.04
2023-02-22T06:00:36.075Z,0.04
2023-02-22T06:01:36.141Z,0.04
2023-02-22T06:02:36.104Z,0.07
2023-02-22T06:03:36.118Z,0.10
2023-02-22T06:04:36.146Z,0.16
2023-02-22T06:05:36.185Z,0.18
2023-02-22T06:06:36.166Z,0.22
2023-02-22T06:07:36.181Z,0.25
2023-02-22T06:08:36.209Z,0.31
2023-02-22T06:09:36.242Z,0.31
2023-02-22T06:10:36.243Z,0.28
2023-02-22T06:11:36.253Z,0.31
2023-02-22T06:12:36.277Z,0.28
2023-02-22T06:13:36.296Z,0.28
2023-02-22T06:14:36.338Z,0.31
2023-02-22T06:15:36.327Z,0.31
2023-02-22T06:16:36.408Z,0.34
2023-02-22T06:17:36.366Z,0.37
2023-02-22T06:18:36.392Z,0.43
2023-02-22T06:19:36.416Z,0.43
2023-02-22T06:20:36.424Z,0.41
2023-02-22T06:21:36.445Z,0.39
2023-02-22T06:22:36.465Z,0.37
2023-02-22T06:23:36.475Z,0.36
2023-02-22T06:24:36.518Z,0.37
2023-02-22T06:25:36.538Z,0.36
2023-02-22T06:26:36.568Z,0.32
2023-02-22T06:27:36.551Z,0.34
2023-02-22T06:28:36.578Z,0.36
2023-02-22T06:29:36.608Z,0.36
2023-02-22T06:30:36.679Z,0.36
2023-02-22T06:31:36.673Z,0.32
2023-02-22T06:32:36.650Z,0.29
2023-02-22T06:33:36.668Z,0.31
2023-02-22T06:34:36.708Z,0.28
2023-02-22T06:35:36.696Z,0.26
2023-02-22T06:36:36.720Z,0.26
2023-02-22T06:37:36.740Z,0.23
2023-02-22T06:38:36.747Z,0.29
2023-02-22T06:39:36.782Z,0.28
2023-02-22T06:40:36.789Z,0.28
2023-02-22T06:41:36.814Z,0.26
2023-02-22T06:42:36.819Z,0.23
2023-02-22T06:43:36.842Z,0.22
2023-02-22T06:44:36.907Z,0.23
2023-02-22T06:45:36.891Z,0.23
2023-02-22T06:46:36.898Z,0.22
2023-02-22T06:47:36.903Z,0.22
2023-02-22T06:48:36.925Z,0.21
2023-02-22T06:49:36.963Z,0.22
2023-02-22T06:50:36.983Z,0.23
2023-02-22T06:51:36.986Z,0.22
2023-02-22T06:52:36.999Z,0.23
2023-02-22T06:53:37.032Z,0.22
2023-02-22T06:54:37.061Z,0.22
2023-02-22T06:55:37.056Z,0.23
2023-02-22T06:56:37.075Z,0.26
2023-02-22T06:57:37.084Z,0.25
2023-02-22T06:58:37.098Z,0.26
2023-02-22T06:59:37.125Z,0.28
2023-02-22T07:00:37.181Z,0.29
2023-02-22T07:01:37.139Z,0.31
2023-02-22T07:02:37.168Z,0.36
2023-02-22T07:03:37.262Z,0.40
2023-02-22T07:04:37.347Z,0.43
2023-02-22T07:05:37.210Z,0.43
2023-02-22T07:06:37.234Z,0.47
2023-02-22T07:07:37.248Z,0.49
2023-02-22T07:08:37.272Z,0.50
2023-02-22T07:09:37.290Z,0.55
2023-02-22T07:10:37.308Z,0.59
2023-02-22T07:11:37.314Z,0.63
2023-02-22T07:12:37.339Z,0.66
2023-02-22T07:13:37.356Z,0.66
2023-02-22T07:14:37.370Z,0.70
2023-02-22T07:15:37.400Z,0.73
2023-02-22T07:16:37.412Z,0.74
2023-02-22T07:17:37.426Z,0.77
2023-02-22T07:18:37.443Z,0.80
2023-02-22T07:19:37.488Z,0.83
2023-02-22T07:20:37.480Z,0.87
2023-02-22T07:21:37.504Z,0.92
2023-02-22T07:22:37.514Z,1.01
2023-02-22T07:23:37.545Z,1.10
2023-02-22T07:24:37.574Z,1.16
2023-02-22T07:25:37.563Z,1.28
2023-02-22T07:26:37.570Z,1.32
2023-02-22T07:27:37.592Z,1.40
2023-02-22T07:28:37.600Z,1.49
2023-02-22T07:29:37.638Z,1.58
2023-02-22T07:30:37.692Z,1.63
2023-02-22T07:31:37.647Z,1.70
2023-02-22T07:32:37.838Z,1.76
2023-02-22T07:33:37.684Z,1.81
2023-02-22T07:34:37.714Z,1.89
2023-02-22T07:35:37.727Z,1.95
2023-02-22T07:36:37.731Z,1.99
2023-02-22T07:37:37.747Z,2.02
2023-02-22T07:38:37.760Z,2.07
2023-02-22T07:39:37.806Z,2.08
2023-02-22T07:40:37.811Z,2.13
2023-02-22T07:41:37.823Z,2.15
2023-02-22T07:42:37.833Z,2.17
2023-02-22T07:43:37.856Z,2.22
2023-02-22T07:44:37.892Z,2.20
2023-02-22T07:45:37.921Z,2.24
2023-02-22T07:46:37.910Z,2.25
2023-02-22T07:47:37.938Z,2.28
2023-02-22T07:48:37.967Z,2.32
2023-02-22T07:49:38.003Z,2.33
2023-02-22T07:50:37.993Z,2.38
2023-02-22T07:51:38.024Z,2.42
2023-02-22T07:52:38.018Z,2.44
2023-02-22T07:53:38.042Z,2.49
2023-02-22T07:54:38.064Z,2.51
2023-02-22T07:55:38.069Z,2.56
2023-02-22T07:56:38.080Z,2.61
2023-02-22T07:57:38.097Z,2.64
2023-02-22T07:58:38.107Z,2.68
2023-02-22T07:59:38.150Z,2.72
2023-02-22T08:00:38.149Z,2.75
2023-02-22T08:01:38.160Z,2.80
2023-02-22T08:02:38.286Z,2.85
2023-02-22T08:03:38.398Z,2.85
2023-02-22T08:04:38.221Z,2.89
2023-02-22T08:05:38.233Z,2.92
2023-02-22T08:06:38.231Z,2.97
2023-02-22T08:07:38.263Z,2.98
2023-02-22T08:08:38.262Z,3.04
2023-02-22T08:09:38.313Z,3.08
2023-02-22T08:10:38.312Z,3.13
2023-02-22T08:11:38.318Z,3.16
2023-02-22T08:12:38.353Z,3.21
2023-02-22T08:13:38.358Z,3.26
2023-02-22T08:14:38.389Z,3.29
2023-02-22T08:15:38.413Z,3.34
2023-02-22T08:16:38.485Z,3.37
2023-02-22T08:17:38.441Z,3.41
2023-02-22T08:18:38.444Z,3.45
2023-02-22T08:19:38.487Z,3.48
2023-02-22T08:20:38.481Z,3.55
2023-02-22T08:21:38.502Z,3.60
2023-02-22T08:22:38.511Z,3.62
2023-02-22T08:23:38.538Z,3.66
2023-02-22T08:24:38.581Z,3.70
2023-02-22T08:25:38.576Z,3.74
2023-02-22T08:26:38.587Z,3.76
2023-02-22T08:27:38.606Z,3.80
2023-02-22T08:28:38.616Z,3.86
2023-02-22T08:29:38.663Z,3.92
2023-02-22T08:30:40.415Z,3.98
2023-02-22T08:31:38.695Z,4.02
2023-02-22T08:32:38.728Z,4.10
2023-02-22T08:33:38.723Z,4.19
2023-02-22T08:34:38.749Z,4.26
2023-02-22T08:35:38.743Z,4.34
2023-02-22T08:36:38.807Z,4.41
2023-02-22T08:37:38.773Z,4.50
2023-02-22T08:38:38.794Z,4.56
2023-02-22T08:39:38.829Z,4.60
2023-02-22T08:40:38.825Z,4.67
2023-02-22T08:41:38.855Z,4.74
2023-02-22T08:42:38.864Z,4.78
2023-02-22T08:43:38.885Z,4.87
2023-02-22T08:44:38.918Z,4.92
2023-02-22T08:45:38.977Z,5.02
2023-02-22T08:46:38.941Z,5.11
2023-02-22T08:47:38.976Z,5.17
2023-02-22T08:48:39.008Z,5.21
2023-02-22T08:49:39.019Z,5.26
2023-02-22T08:50:39.011Z,5.36
2023-02-22T08:51:39.036Z,5.44
2023-02-22T08:52:39.059Z,5.51
2023-02-22T08:53:39.077Z,5.57
2023-02-22T08:54:39.110Z,5.65
2023-02-22T08:55:39.123Z,5.69
2023-02-22T08:56:39.130Z,5.76
2023-02-22T08:57:39.147Z,5.82
2023-02-22T08:58:39.156Z,5.89
2023-02-22T08:59:39.199Z,5.98
2023-02-22T09:00:39.273Z,6.12
2023-02-22T09:01:39.674Z,6.27
2023-02-22T09:02:39.224Z,6.42
2023-02-22T09:03:39.277Z,6.62
2023-02-22T09:04:39.276Z,6.77
2023-02-22T09:05:39.342Z,6.79
2023-02-22T09:06:39.286Z,6.81
2023-02-22T09:07:39.308Z,6.82
2023-02-22T09:08:39.326Z,6.87
2023-02-22T09:09:39.374Z,6.88
2023-02-22T09:10:39.369Z,6.88
2023-02-22T09:11:39.393Z,6.95
2023-02-22T09:12:39.408Z,6.99
2023-02-22T09:13:39.427Z,7.02
2023-02-22T09:14:39.460Z,7.05
2023-02-22T09:15:39.461Z,7.02
2023-02-22T09:16:39.558Z,7.03
2023-02-22T09:17:39.514Z,7.03
2023-02-22T09:18:44.364Z,7.05
2023-02-22T09:19:39.553Z,7.05
2023-02-22T09:20:39.535Z,7.11
2023-02-22T09:21:39.558Z,7.20
2023-02-22T09:22:39.574Z,7.24
2023-02-22T09:23:39.601Z,7.31
2023-02-22T09:24:39.643Z,7.36
2023-02-22T09:25:39.640Z,7.40
2023-02-22T09:26:39.650Z,7.45
2023-02-22T09:27:39.678Z,7.50
2023-02-22T09:28:39.701Z,7.54
2023-02-22T09:29:39.750Z,7.57
2023-02-22T09:30:39.834Z,7.61
2023-02-22T09:31:39.848Z,7.63
2023-02-22T09:32:39.938Z,7.66
2023-02-22T09:33:39.780Z,7.70
2023-02-22T09:34:39.872Z,7.72
2023-02-22T09:35:39.810Z,7.76
2023-02-22T09:36:39.830Z,7.75
2023-02-22T09:37:39.881Z,7.77
2023-02-22T09:38:39.868Z,7.79
2023-02-22T09:39:39.969Z,7.82
2023-02-22T09:40:39.914Z,7.91
2023-02-22T09:41:39.929Z,7.97
2023-02-22T09:42:39.938Z,8.00
2023-02-22T09:43:39.968Z,8.06
2023-02-22T09:44:40.026Z,8.13
2023-02-22T09:45:40.056Z,8.16
2023-02-22T09:46:40.018Z,8.18
2023-02-22T09:47:40.076Z,8.20
2023-02-22T09:48:40.058Z,8.27
2023-02-22T09:49:40.117Z,8.30
2023-02-22T09:50:40.089Z,8.34
2023-02-22T09:51:40.106Z,8.41
2023-02-22T09:52:40.127Z,8.45
2023-02-22T09:53:40.146Z,8.46
2023-02-22T09:54:40.189Z,8.45
2023-02-22T09:55:40.182Z,8.44
2023-02-22T09:56:40.196Z,8.45
2023-02-22T09:57:40.218Z,8.46
2023-02-22T09:58:41.871Z,8.51
2023-02-22T09:59:40.257Z,8.56
2023-02-22T10:00:40.281Z,8.60
2023-02-22T10:01:40.284Z,8.61
2023-02-22T10:02:40.293Z,8.70
2023-02-22T10:03:40.333Z,8.76
2023-02-22T10:04:40.333Z,8.81
2023-02-22T10:05:40.436Z,8.87
2023-02-22T10:06:40.371Z,8.88
2023-02-22T10:07:40.416Z,8.88
2023-02-22T10:08:40.406Z,8.92
2023-02-22T10:09:40.435Z,8.91
2023-02-22T10:10:40.460Z,8.94
2023-02-22T10:11:40.470Z,8.99
2023-02-22T10:12:40.480Z,9.08
2023-02-22T10:13:40.490Z,9.19
2023-02-22T10:14:42.889Z,9.22
2023-02-22T10:15:40.534Z,9.29
2023-02-22T10:16:40.592Z,9.31
2023-02-22T10:17:40.575Z,9.32
2023-02-22T10:18:40.573Z,9.34
2023-02-22T10:19:40.631Z,9.37
2023-02-22T10:20:40.616Z,9.39
2023-02-22T10:21:40.624Z,9.41
2023-02-22T10:22:40.636Z,9.43
2023-02-22T10:23:40.659Z,9.43
2023-02-22T10:24:40.668Z,9.47
2023-02-22T10:25:40.721Z,9.48
2023-02-22T10:26:40.715Z,9.47
2023-02-22T10:27:40.740Z,9.47
2023-02-22T10:28:40.751Z,9.48
2023-02-22T10:29:40.814Z,9.48
2023-02-22T10:30:40.824Z,9.48
2023-02-22T10:31:40.964Z,9.56
2023-02-22T10:32:40.864Z,9.61
2023-02-22T10:33:40.852Z,9.68
2023-02-22T10:34:40.863Z,9.74
2023-02-22T10:35:40.911Z,9.76
2023-02-22T10:36:40.899Z,9.74
2023-02-22T10:37:40.957Z,9.74
2023-02-22T10:38:40.939Z,9.76
2023-02-22T10:39:41.023Z,9.76
2023-02-22T10:40:41.002Z,9.76
2023-02-22T10:41:41.005Z,9.77
2023-02-22T10:42:41.021Z,9.87
2023-02-22T10:43:41.045Z,9.94
2023-02-22T10:44:41.129Z,10.01
2023-02-22T10:45:41.122Z,10.07
2023-02-22T10:46:41.095Z,10.15
2023-02-22T10:47:41.107Z,10.22
2023-02-22T10:48:41.112Z,10.26
2023-02-22T10:49:41.143Z,10.33
2023-02-22T10:50:41.174Z,10.41
2023-02-22T10:51:41.162Z,10.46
2023-02-22T10:52:41.169Z,10.54
2023-02-22T10:53:41.197Z,10.67
2023-02-22T10:54:41.201Z,10.76
2023-02-22T10:55:41.277Z,10.87
2023-02-22T10:56:41.234Z,10.97
2023-02-22T10:57:41.257Z,11.00
2023-02-22T10:58:41.257Z,10.99
2023-02-22T10:59:41.303Z,11.04
2023-02-22T11:00:47.306Z,11.05
2023-02-22T11:01:41.381Z,11.07
2023-02-22T11:02:41.317Z,11.11
2023-02-22T11:03:41.341Z,11.22
2023-02-22T11:04:41.379Z,11.30
2023-02-22T11:05:41.399Z,11.37
2023-02-22T11:06:41.369Z,11.33
2023-02-22T11:07:41.390Z,11.41
2023-02-22T11:08:41.397Z,11.47
2023-02-22T11:09:41.419Z,11.52
2023-02-22T11:10:41.444Z,11.51
2023-02-22T11:11:41.452Z,11.43
2023-02-22T11:12:41.463Z,11.41
2023-02-22T11:13:41.482Z,11.44
2023-02-22T11:14:41.502Z,11.52
2023-02-22T11:15:41.529Z,11.55
2023-02-22T11:16:41.561Z,11.59
2023-02-22T11:17:41.544Z,11.62
2023-02-22T11:18:41.556Z,11.69
2023-02-22T11:19:41.568Z,11.73
2023-02-22T11:20:41.609Z,11.77
2023-02-22T11:21:41.592Z,11.81
2023-02-22T11:22:41.605Z,11.81
2023-02-22T11:23:44.329Z,11.94
2023-02-22T11:24:49.072Z,12.02
2023-02-22T11:25:41.680Z,12.02
2023-02-22T11:26:41.684Z,12.03
2023-02-22T11:27:41.686Z,12.12
2023-02-22T11:28:41.699Z,12.27
2023-02-22T11:29:41.706Z,12.31
2023-02-22T11:30:41.860Z,12.32
2023-02-22T11:31:41.846Z,12.42
2023-02-22T11:32:41.766Z,12.54
2023-02-22T11:33:41.766Z,12.62
2023-02-22T11:34:41.793Z,12.65
2023-02-22T11:35:41.816Z,12.76
2023-02-22T11:36:41.824Z,12.72
2023-02-22T11:37:41.830Z,12.58
2023-02-22T11:38:41.846Z,12.72
2023-02-22T11:39:41.905Z,12.78
2023-02-22T11:40:41.898Z,12.85
2023-02-22T11:41:41.890Z,13.01
2023-02-22T11:42:41.916Z,13.16
2023-02-22T11:43:41.919Z,13.25
2023-02-22T11:44:41.937Z,13.37
2023-02-22T11:45:49.837Z,13.38
2023-02-22T11:46:42.036Z,13.39
2023-02-22T11:47:41.966Z,13.31
2023-02-22T11:48:42.004Z,13.22
2023-02-22T11:49:41.997Z,13.25
2023-02-22T11:50:42.061Z,13.25
2023-02-22T11:51:42.040Z,13.30
2023-02-22T11:52:42.055Z,13.31
2023-02-22T11:53:42.066Z,13.39
2023-02-22T11:54:42.091Z,13.47
2023-02-22T11:55:43.509Z,13.59
2023-02-22T11:56:42.673Z,13.59
2023-02-22T11:57:42.120Z,13.63
2023-02-22T11:58:42.141Z,13.72
2023-02-22T11:59:42.150Z,13.79
2023-02-22T12:00:42.194Z,13.86
2023-02-22T12:01:42.181Z,13.90
2023-02-22T12:02:51.952Z,13.87
2023-02-22T12:03:42.305Z,13.86
2023-02-22T12:04:43.171Z,13.83
2023-02-22T12:05:42.264Z,13.83
2023-02-22T12:06:42.260Z,13.95
2023-02-22T12:07:42.264Z,14.05
2023-02-22T12:08:42.286Z,14.07
2023-02-22T12:09:42.303Z,14.07
2023-02-22T12:10:42.338Z,14.11
2023-02-22T12:11:42.331Z,14.11
2023-02-22T12:12:42.351Z,14.10
2023-02-22T12:13:42.366Z,13.97
2023-02-22T12:14:42.390Z,13.99
2023-02-22T12:15:42.479Z,14.05
2023-02-22T12:16:42.416Z,14.10
2023-02-22T12:17:48.183Z,14.11
2023-02-22T12:18:42.456Z,14.17
2023-02-22T12:19:42.465Z,14.17
2023-02-22T12:20:42.496Z,14.26
2023-02-22T12:21:42.525Z,14.35
2023-02-22T12:22:42.510Z,14.40
2023-02-22T12:23:42.521Z,14.43
2023-02-22T12:24:42.541Z,14.48
2023-02-22T12:25:42.573Z,14.53
2023-02-22T12:26:42.578Z,14.59
2023-02-22T12:27:42.586Z,14.65
2023-02-22T12:28:42.679Z,14.48
2023-02-22T12:29:42.620Z,14.33
2023-02-22T12:30:42.799Z,14.40
2023-02-22T12:31:42.752Z,14.50
2023-02-22T12:32:42.732Z,14.58
2023-02-22T12:33:42.693Z,14.53
2023-02-22T12:34:42.780Z,14.48
2023-02-22T12:35:42.766Z,14.44
2023-02-22T12:36:42.752Z,14.44
2023-02-22T12:37:42.762Z,14.33
2023-02-22T12:38:42.776Z,14.33
2023-02-22T12:39:52.823Z,14.33
2023-02-22T12:40:42.813Z,14.32
2023-02-22T12:41:42.813Z,14.32
2023-02-22T12:42:42.838Z,14.35
2023-02-22T12:43:42.847Z,14.33
2023-02-22T12:44:42.866Z,14.29
2023-02-22T12:45:42.897Z,14.35
2023-02-22T12:46:42.990Z,14.40
2023-02-22T12:47:42.903Z,14.44
2023-02-22T12:48:42.926Z,14.48
2023-02-22T12:49:42.939Z,14.48
2023-02-22T12:50:42.976Z,14.47
2023-02-22T12:51:42.979Z,14.43
2023-02-22T12:52:42.997Z,14.40
2023-02-22T12:53:42.996Z,14.36
2023-02-22T12:54:43.024Z,14.35
2023-02-22T12:55:43.045Z,14.33
2023-02-22T12:56:43.054Z,14.30
2023-02-22T12:57:43.064Z,14.22
2023-02-22T12:58:43.087Z,14.18
2023-02-22T12:59:43.088Z,14.17
2023-02-22T13:00:43.138Z,14.14
2023-02-22T13:01:43.140Z,14.14
2023-02-22T13:02:43.138Z,14.11
2023-02-22T13:03:43.145Z,14.10
2023-02-22T13:04:43.162Z,14.04
2023-02-22T13:05:43.193Z,14.00
2023-02-22T13:06:43.204Z,13.97
2023-02-22T13:07:43.194Z,13.97
2023-02-22T13:08:43.210Z,13.99
2023-02-22T13:09:43.226Z,13.95
2023-02-22T13:10:43.263Z,13.99
2023-02-22T13:11:43.274Z,13.99
2023-02-22T13:12:43.273Z,14.00
2023-02-22T13:13:43.288Z,14.04
2023-02-22T13:14:43.312Z,14.05